sensor_id;sensor_type;location;lat;lon;timestamp;P1;durP1;ratioP1;P2;durP2;ratioP2
21758;SDS011;11041;50.854;20.580;2023-03-26T00:01:17;8.27;;;3.33;;
21758;SDS011;11041;50.854;20.580;2023-03-26T00:03:48;8.80;;;4.05;;
21758;SDS011;11041;50.854;20.580;2023-03-26T00:06:19;9.30;;;4.32;;
21758;SDS011;11041;50.854;20.580;2023-03-26T00:08:48;10.07;;;3.70;;
21758;SDS011;11041;50.854;20.580;2023-03-26T00:11:16;8.13;;;4.18;;
21758;SDS011;11041;50.854;20.580;2023-03-26T00:13:47;5.25;;;3.35;;
21758;SDS011;11041;50.854;20.580;2023-03-26T00:16:14;8.82;;;3.95;;
21758;SDS011;11041;50.854;20.580;2023-03-26T00:18:44;7.55;;;3.42;;
21758;SDS011;11041;50.854;20.580;2023-03-26T00:21:13;6.88;;;3.90;;
21758;SDS011;11041;50.854;20.580;2023-03-26T00:23:43;5.70;;;3.97;;
21758;SDS011;11041;50.854;20.580;2023-03-26T00:26:10;8.45;;;4.13;;
21758;SDS011;11041;50.854;20.580;2023-03-26T00:28:38;7.82;;;4.00;;
21758;SDS011;11041;50.854;20.580;2023-03-26T00:31:08;8.00;;;3.63;;
21758;SDS011;11041;50.854;20.580;2023-03-26T00:33:39;8.23;;;2.63;;
21758;SDS011;11041;50.854;20.580;2023-03-26T00:36:08;7.50;;;3.50;;
21758;SDS011;11041;50.854;20.580;2023-03-26T00:38:39;6.95;;;3.58;;
21758;SDS011;11041;50.854;20.580;2023-03-26T00:41:08;6.63;;;3.67;;
21758;SDS011;11041;50.854;20.580;2023-03-26T00:43:52;10.57;;;3.15;;
21758;SDS011;11041;50.854;20.580;2023-03-26T00:46:21;6.70;;;3.47;;
21758;SDS011;11041;50.854;20.580;2023-03-26T00:48:50;10.52;;;3.78;;
21758;SDS011;11041;50.854;20.580;2023-03-26T00:51:18;6.13;;;3.85;;
21758;SDS011;11041;50.854;20.580;2023-03-26T00:53:46;5.18;;;3.53;;
21758;SDS011;11041;50.854;20.580;2023-03-26T00:56:15;6.50;;;4.10;;
21758;SDS011;11041;50.854;20.580;2023-03-26T00:58:44;8.57;;;4.25;;
21758;SDS011;11041;50.854;20.580;2023-03-26T01:01:15;6.20;;;3.60;;
21758;SDS011;11041;50.854;20.580;2023-03-26T01:03:53;8.32;;;3.40;;
21758;SDS011;11041;50.854;20.580;2023-03-26T01:06:28;7.18;;;2.97;;
21758;SDS011;11041;50.854;20.580;2023-03-26T01:09:01;5.50;;;3.10;;
21758;SDS011;11041;50.854;20.580;2023-03-26T01:11:42;6.70;;;3.42;;
21758;SDS011;11041;50.854;20.580;2023-03-26T01:14:11;7.43;;;3.85;;
21758;SDS011;11041;50.854;20.580;2023-03-26T01:19:27;5.68;;;3.28;;
21758;SDS011;11041;50.854;20.580;2023-03-26T01:22:20;4.93;;;2.83;;
21758;SDS011;11041;50.854;20.580;2023-03-26T01:24:52;5.78;;;3.10;;
21758;SDS011;11041;50.854;20.580;2023-03-26T01:33:27;5.78;;;3.80;;
21758;SDS011;11041;50.854;20.580;2023-03-26T01:36:31;8.27;;;3.70;;
21758;SDS011;11041;50.854;20.580;2023-03-26T01:39:23;6.97;;;3.40;;
21758;SDS011;11041;50.854;20.580;2023-03-26T01:42:08;5.82;;;3.13;;
21758;SDS011;11041;50.854;20.580;2023-03-26T01:44:43;4.78;;;3.28;;
21758;SDS011;11041;50.854;20.580;2023-03-26T01:47:24;4.68;;;3.10;;
21758;SDS011;11041;50.854;20.580;2023-03-26T01:49:51;4.15;;;3.15;;
21758;SDS011;11041;50.854;20.580;2023-03-26T01:52:19;5.00;;;2.95;;
21758;SDS011;11041;50.854;20.580;2023-03-26T01:54:49;5.82;;;3.42;;
21758;SDS011;11041;50.854;20.580;2023-03-26T01:57:24;4.75;;;2.90;;
21758;SDS011;11041;50.854;20.580;2023-03-26T02:05:56;5.22;;;2.70;;
21758;SDS011;11041;50.854;20.580;2023-03-26T02:08:45;4.95;;;3.33;;
21758;SDS011;11041;50.854;20.580;2023-03-26T02:11:21;6.07;;;3.22;;
21758;SDS011;11041;50.854;20.580;2023-03-26T02:13:47;3.95;;;2.80;;
21758;SDS011;11041;50.854;20.580;2023-03-26T02:16:16;3.55;;;2.45;;
21758;SDS011;11041;50.854;20.580;2023-03-26T02:18:46;10.13;;;3.30;;
21758;SDS011;11041;50.854;20.580;2023-03-26T02:21:21;7.32;;;2.97;;
21758;SDS011;11041;50.854;20.580;2023-03-26T02:23:52;3.92;;;2.72;;
21758;SDS011;11041;50.854;20.580;2023-03-26T02:26:31;5.93;;;3.30;;
21758;SDS011;11041;50.854;20.580;2023-03-26T02:29:00;8.50;;;3.58;;
21758;SDS011;11041;50.854;20.580;2023-03-26T02:31:27;5.88;;;3.15;;
21758;SDS011;11041;50.854;20.580;2023-03-26T02:33:54;5.95;;;2.95;;
21758;SDS011;11041;50.854;20.580;2023-03-26T02:36:22;5.90;;;3.50;;
21758;SDS011;11041;50.854;20.580;2023-03-26T02:38:52;7.25;;;3.90;;
21758;SDS011;11041;50.854;20.580;2023-03-26T02:41:22;5.32;;;3.45;;
21758;SDS011;11041;50.854;20.580;2023-03-26T02:43:49;7.70;;;4.18;;
21758;SDS011;11041;50.854;20.580;2023-03-26T02:46:15;4.65;;;3.25;;
21758;SDS011;11041;50.854;20.580;2023-03-26T02:48:42;5.00;;;3.20;;
21758;SDS011;11041;50.854;20.580;2023-03-26T02:51:08;5.80;;;3.25;;
21758;SDS011;11041;50.854;20.580;2023-03-26T02:53:35;5.28;;;3.92;;
21758;SDS011;11041;50.854;20.580;2023-03-26T02:56:03;3.70;;;3.30;;
21758;SDS011;11041;50.854;20.580;2023-03-26T02:58:31;5.10;;;3.47;;
21758;SDS011;11041;50.854;20.580;2023-03-26T03:00:59;6.47;;;3.08;;
21758;SDS011;11041;50.854;20.580;2023-03-26T03:03:27;7.80;;;4.03;;
21758;SDS011;11041;50.854;20.580;2023-03-26T03:05:55;6.00;;;3.83;;
21758;SDS011;11041;50.854;20.580;2023-03-26T03:08:23;9.15;;;5.75;;
21758;SDS011;11041;50.854;20.580;2023-03-26T03:11:02;4.88;;;3.90;;
21758;SDS011;11041;50.854;20.580;2023-03-26T03:13:35;7.53;;;3.75;;
21758;SDS011;11041;50.854;20.580;2023-03-26T03:16:02;6.47;;;4.20;;
21758;SDS011;11041;50.854;20.580;2023-03-26T03:18:29;5.75;;;4.00;;
21758;SDS011;11041;50.854;20.580;2023-03-26T03:20:56;5.53;;;3.42;;
21758;SDS011;11041;50.854;20.580;2023-03-26T03:23:22;6.72;;;4.03;;
21758;SDS011;11041;50.854;20.580;2023-03-26T03:25:49;5.90;;;3.38;;
21758;SDS011;11041;50.854;20.580;2023-03-26T03:28:17;6.90;;;4.05;;
21758;SDS011;11041;50.854;20.580;2023-03-26T03:30:44;7.75;;;4.00;;
21758;SDS011;11041;50.854;20.580;2023-03-26T03:33:11;5.00;;;3.50;;
21758;SDS011;11041;50.854;20.580;2023-03-26T03:35:38;7.32;;;4.43;;
21758;SDS011;11041;50.854;20.580;2023-03-26T03:38:06;6.50;;;3.95;;
21758;SDS011;11041;50.854;20.580;2023-03-26T03:40:32;6.35;;;4.25;;
21758;SDS011;11041;50.854;20.580;2023-03-26T03:42:59;8.80;;;3.67;;
21758;SDS011;11041;50.854;20.580;2023-03-26T03:45:25;7.65;;;4.00;;
21758;SDS011;11041;50.854;20.580;2023-03-26T03:47:52;4.53;;;2.40;;
21758;SDS011;11041;50.854;20.580;2023-03-26T03:50:18;8.68;;;4.60;;
21758;SDS011;11041;50.854;20.580;2023-03-26T03:52:45;6.53;;;4.10;;
21758;SDS011;11041;50.854;20.580;2023-03-26T03:55:11;5.80;;;4.20;;
21758;SDS011;11041;50.854;20.580;2023-03-26T03:57:38;6.75;;;3.60;;
21758;SDS011;11041;50.854;20.580;2023-03-26T04:00:05;5.78;;;3.67;;
21758;SDS011;11041;50.854;20.580;2023-03-26T04:02:36;5.05;;;3.08;;
21758;SDS011;11041;50.854;20.580;2023-03-26T04:05:04;7.53;;;3.65;;
21758;SDS011;11041;50.854;20.580;2023-03-26T04:07:31;7.10;;;3.50;;
21758;SDS011;11041;50.854;20.580;2023-03-26T04:09:58;7.72;;;3.75;;
21758;SDS011;11041;50.854;20.580;2023-03-26T04:12:27;9.57;;;4.88;;
21758;SDS011;11041;50.854;20.580;2023-03-26T04:14:55;8.18;;;5.20;;
21758;SDS011;11041;50.854;20.580;2023-03-26T04:17:23;5.65;;;4.50;;
21758;SDS011;11041;50.854;20.580;2023-03-26T04:19:50;9.80;;;6.95;;
21758;SDS011;11041;50.854;20.580;2023-03-26T04:22:19;7.50;;;4.50;;
21758;SDS011;11041;50.854;20.580;2023-03-26T04:24:47;13.57;;;10.48;;
21758;SDS011;11041;50.854;20.580;2023-03-26T04:27:15;9.73;;;7.28;;
21758;SDS011;11041;50.854;20.580;2023-03-26T04:29:49;8.45;;;6.15;;
21758;SDS011;11041;50.854;20.580;2023-03-26T04:32:24;12.05;;;7.32;;
21758;SDS011;11041;50.854;20.580;2023-03-26T04:34:54;6.40;;;3.72;;
21758;SDS011;11041;50.854;20.580;2023-03-26T04:40:02;6.35;;;5.22;;
21758;SDS011;11041;50.854;20.580;2023-03-26T04:42:34;12.23;;;4.70;;
21758;SDS011;11041;50.854;20.580;2023-03-26T04:45:03;8.07;;;4.88;;
21758;SDS011;11041;50.854;20.580;2023-03-26T04:47:30;9.48;;;4.80;;
21758;SDS011;11041;50.854;20.580;2023-03-26T04:50:05;7.20;;;4.60;;
21758;SDS011;11041;50.854;20.580;2023-03-26T04:52:35;8.95;;;4.80;;
21758;SDS011;11041;50.854;20.580;2023-03-26T04:55:04;5.82;;;3.25;;
21758;SDS011;11041;50.854;20.580;2023-03-26T04:58:04;9.55;;;7.05;;
21758;SDS011;11041;50.854;20.580;2023-03-26T05:00:31;9.35;;;5.97;;
21758;SDS011;11041;50.854;20.580;2023-03-26T05:02:57;14.98;;;9.70;;
21758;SDS011;11041;50.854;20.580;2023-03-26T05:05:24;8.48;;;5.63;;
21758;SDS011;11041;50.854;20.580;2023-03-26T05:07:54;14.48;;;11.07;;
21758;SDS011;11041;50.854;20.580;2023-03-26T05:10:21;12.32;;;10.50;;
21758;SDS011;11041;50.854;20.580;2023-03-26T05:12:48;10.93;;;8.50;;
21758;SDS011;11041;50.854;20.580;2023-03-26T05:15:14;7.93;;;6.05;;
21758;SDS011;11041;50.854;20.580;2023-03-26T05:17:41;8.00;;;4.63;;
21758;SDS011;11041;50.854;20.580;2023-03-26T05:20:27;6.43;;;4.32;;
21758;SDS011;11041;50.854;20.580;2023-03-26T05:22:55;6.32;;;3.83;;
21758;SDS011;11041;50.854;20.580;2023-03-26T05:25:22;9.32;;;4.20;;
21758;SDS011;11041;50.854;20.580;2023-03-26T05:27:49;6.95;;;3.88;;
21758;SDS011;11041;50.854;20.580;2023-03-26T05:30:16;7.85;;;4.38;;
21758;SDS011;11041;50.854;20.580;2023-03-26T05:32:46;9.13;;;4.15;;
21758;SDS011;11041;50.854;20.580;2023-03-26T05:35:14;7.55;;;3.90;;
21758;SDS011;11041;50.854;20.580;2023-03-26T05:37:42;10.15;;;5.63;;
21758;SDS011;11041;50.854;20.580;2023-03-26T05:40:11;8.15;;;4.65;;
21758;SDS011;11041;50.854;20.580;2023-03-26T05:42:41;9.30;;;4.78;;
21758;SDS011;11041;50.854;20.580;2023-03-26T05:45:09;10.05;;;4.97;;
21758;SDS011;11041;50.854;20.580;2023-03-26T05:47:38;4.82;;;3.63;;
21758;SDS011;11041;50.854;20.580;2023-03-26T05:50:05;3.85;;;3.25;;
21758;SDS011;11041;50.854;20.580;2023-03-26T05:52:33;5.15;;;3.28;;
21758;SDS011;11041;50.854;20.580;2023-03-26T05:55:00;5.32;;;2.72;;
21758;SDS011;11041;50.854;20.580;2023-03-26T05:57:28;6.32;;;3.47;;
21758;SDS011;11041;50.854;20.580;2023-03-26T05:59:55;9.13;;;4.40;;
21758;SDS011;11041;50.854;20.580;2023-03-26T06:02:22;5.35;;;3.38;;
21758;SDS011;11041;50.854;20.580;2023-03-26T06:04:49;5.38;;;3.22;;
21758;SDS011;11041;50.854;20.580;2023-03-26T06:07:16;6.78;;;3.65;;
21758;SDS011;11041;50.854;20.580;2023-03-26T06:09:44;7.28;;;4.68;;
21758;SDS011;11041;50.854;20.580;2023-03-26T06:12:11;6.93;;;4.10;;
21758;SDS011;11041;50.854;20.580;2023-03-26T06:14:38;5.50;;;3.20;;
21758;SDS011;11041;50.854;20.580;2023-03-26T06:17:07;10.52;;;4.68;;
21758;SDS011;11041;50.854;20.580;2023-03-26T06:19:34;6.40;;;4.25;;
21758;SDS011;11041;50.854;20.580;2023-03-26T06:22:01;5.10;;;3.55;;
21758;SDS011;11041;50.854;20.580;2023-03-26T06:24:29;8.52;;;3.28;;
21758;SDS011;11041;50.854;20.580;2023-03-26T06:26:56;6.60;;;3.28;;
21758;SDS011;11041;50.854;20.580;2023-03-26T06:29:22;7.35;;;3.95;;
21758;SDS011;11041;50.854;20.580;2023-03-26T06:31:49;5.38;;;2.58;;
21758;SDS011;11041;50.854;20.580;2023-03-26T06:34:15;5.38;;;3.30;;
21758;SDS011;11041;50.854;20.580;2023-03-26T06:36:42;4.28;;;2.47;;
21758;SDS011;11041;50.854;20.580;2023-03-26T06:39:09;6.63;;;2.90;;
21758;SDS011;11041;50.854;20.580;2023-03-26T06:41:36;5.40;;;3.78;;
21758;SDS011;11041;50.854;20.580;2023-03-26T06:44:02;4.65;;;3.15;;
21758;SDS011;11041;50.854;20.580;2023-03-26T06:46:30;4.75;;;3.55;;
21758;SDS011;11041;50.854;20.580;2023-03-26T06:48:57;6.10;;;3.65;;
21758;SDS011;11041;50.854;20.580;2023-03-26T06:51:25;5.82;;;3.40;;
21758;SDS011;11041;50.854;20.580;2023-03-26T06:53:51;5.47;;;3.47;;
21758;SDS011;11041;50.854;20.580;2023-03-26T06:56:18;6.80;;;4.07;;
21758;SDS011;11041;50.854;20.580;2023-03-26T06:58:44;5.55;;;3.45;;
21758;SDS011;11041;50.854;20.580;2023-03-26T07:01:11;6.03;;;2.97;;
21758;SDS011;11041;50.854;20.580;2023-03-26T07:03:37;6.15;;;3.97;;
21758;SDS011;11041;50.854;20.580;2023-03-26T07:06:04;7.25;;;3.85;;
21758;SDS011;11041;50.854;20.580;2023-03-26T07:08:31;6.25;;;4.40;;
21758;SDS011;11041;50.854;20.580;2023-03-26T07:10:58;8.45;;;4.53;;
21758;SDS011;11041;50.854;20.580;2023-03-26T07:13:24;9.02;;;5.75;;
21758;SDS011;11041;50.854;20.580;2023-03-26T07:15:51;9.98;;;5.47;;
21758;SDS011;11041;50.854;20.580;2023-03-26T07:18:18;9.20;;;7.35;;
21758;SDS011;11041;50.854;20.580;2023-03-26T07:20:44;11.23;;;4.90;;
21758;SDS011;11041;50.854;20.580;2023-03-26T07:23:11;10.02;;;5.93;;
21758;SDS011;11041;50.854;20.580;2023-03-26T07:25:40;7.45;;;5.30;;
21758;SDS011;11041;50.854;20.580;2023-03-26T07:28:09;8.15;;;5.35;;
21758;SDS011;11041;50.854;20.580;2023-03-26T07:31:04;7.53;;;4.00;;
21758;SDS011;11041;50.854;20.580;2023-03-26T07:48:17;5.20;;;2.90;;
21758;SDS011;11041;50.854;20.580;2023-03-26T07:50:54;5.60;;;3.58;;
21758;SDS011;11041;50.854;20.580;2023-03-26T07:53:21;5.32;;;3.88;;
21758;SDS011;11041;50.854;20.580;2023-03-26T07:58:32;7.43;;;3.50;;
21758;SDS011;11041;50.854;20.580;2023-03-26T08:10:24;5.07;;;2.65;;
21758;SDS011;11041;50.854;20.580;2023-03-26T08:18:45;8.20;;;6.55;;
21758;SDS011;11041;50.854;20.580;2023-03-26T08:21:49;3.50;;;3.20;;
21758;SDS011;11041;50.854;20.580;2023-03-26T08:27:22;5.78;;;4.00;;
21758;SDS011;11041;50.854;20.580;2023-03-26T08:32:48;6.13;;;5.53;;
21758;SDS011;11041;50.854;20.580;2023-03-26T08:35:36;6.75;;;4.68;;
21758;SDS011;11041;50.854;20.580;2023-03-26T08:38:16;7.38;;;5.30;;
21758;SDS011;11041;50.854;20.580;2023-03-26T08:56:22;4.60;;;3.40;;
21758;SDS011;11041;50.854;20.580;2023-03-26T09:02:26;6.22;;;4.07;;
21758;SDS011;11041;50.854;20.580;2023-03-26T09:17:17;3.47;;;1.98;;
21758;SDS011;11041;50.854;20.580;2023-03-26T09:41:07;2.65;;;2.30;;
21758;SDS011;11041;50.854;20.580;2023-03-26T09:49:41;5.65;;;2.42;;
21758;SDS011;11041;50.854;20.580;2023-03-26T10:06:56;2.22;;;1.60;;
21758;SDS011;11041;50.854;20.580;2023-03-26T10:09:47;4.32;;;1.88;;
21758;SDS011;11041;50.854;20.580;2023-03-26T10:12:41;1.80;;;1.25;;
21758;SDS011;11041;50.854;20.580;2023-03-26T10:27:10;2.13;;;1.27;;
21758;SDS011;11041;50.854;20.580;2023-03-26T10:37:01;4.38;;;1.83;;
21758;SDS011;11041;50.854;20.580;2023-03-26T10:49:23;0.98;;;0.98;;
21758;SDS011;11041;50.854;20.580;2023-03-26T10:52:33;0.73;;;0.73;;
21758;SDS011;11041;50.854;20.580;2023-03-26T11:01:01;2.00;;;1.10;;
21758;SDS011;11041;50.854;20.580;2023-03-26T11:03:58;1.05;;;0.95;;
21758;SDS011;11041;50.854;20.580;2023-03-26T11:13:13;3.88;;;2.17;;
21758;SDS011;11041;50.854;20.580;2023-03-26T11:15:55;2.63;;;2.03;;
21758;SDS011;11041;50.854;20.580;2023-03-26T11:18:44;56.63;;;31.33;;
21758;SDS011;11041;50.854;20.580;2023-03-26T11:21:38;8.98;;;6.20;;
21758;SDS011;11041;50.854;20.580;2023-03-26T11:30:18;6.13;;;2.03;;
21758;SDS011;11041;50.854;20.580;2023-03-26T11:33:05;5.20;;;3.97;;
21758;SDS011;11041;50.854;20.580;2023-03-26T11:35:42;9.93;;;9.00;;
21758;SDS011;11041;50.854;20.580;2023-03-26T11:41:02;7.75;;;3.72;;
21758;SDS011;11041;50.854;20.580;2023-03-26T11:43:39;2.53;;;1.55;;
21758;SDS011;11041;50.854;20.580;2023-03-26T11:46:07;1.05;;;0.95;;
21758;SDS011;11041;50.854;20.580;2023-03-26T11:48:39;15.50;;;7.97;;
21758;SDS011;11041;50.854;20.580;2023-03-26T11:54:00;3.35;;;1.90;;
21758;SDS011;11041;50.854;20.580;2023-03-26T11:56:30;1.70;;;1.50;;
21758;SDS011;11041;50.854;20.580;2023-03-26T12:07:31;2.22;;;1.38;;
21758;SDS011;11041;50.854;20.580;2023-03-26T12:12:32;3.58;;;1.90;;
21758;SDS011;11041;50.854;20.580;2023-03-26T12:15:11;47.25;;;19.67;;
21758;SDS011;11041;50.854;20.580;2023-03-26T12:17:44;124.95;;;49.53;;
21758;SDS011;11041;50.854;20.580;2023-03-26T12:22:53;215.07;;;93.38;;
21758;SDS011;11041;50.854;20.580;2023-03-26T12:25:24;256.50;;;118.00;;
21758;SDS011;11041;50.854;20.580;2023-03-26T12:27:59;2.00;;;1.02;;
21758;SDS011;11041;50.854;20.580;2023-03-26T12:30:36;1.98;;;1.50;;
21758;SDS011;11041;50.854;20.580;2023-03-26T12:33:09;52.05;;;24.48;;
21758;SDS011;11041;50.854;20.580;2023-03-26T12:35:47;2.22;;;1.40;;
21758;SDS011;11041;50.854;20.580;2023-03-26T12:47:08;3.60;;;2.30;;
21758;SDS011;11041;50.854;20.580;2023-03-26T12:49:55;2.67;;;2.10;;
21758;SDS011;11041;50.854;20.580;2023-03-26T13:06:40;5.88;;;5.30;;
21758;SDS011;11041;50.854;20.580;2023-03-26T13:20:48;4.28;;;2.60;;
21758;SDS011;11041;50.854;20.580;2023-03-26T13:33:06;3.97;;;1.70;;
21758;SDS011;11041;50.854;20.580;2023-03-26T13:39:19;1.83;;;1.38;;
21758;SDS011;11041;50.854;20.580;2023-03-26T13:48:18;2.63;;;1.90;;
21758;SDS011;11041;50.854;20.580;2023-03-26T13:50:56;1.73;;;1.63;;
21758;SDS011;11041;50.854;20.580;2023-03-26T13:53:46;4.22;;;1.60;;
21758;SDS011;11041;50.854;20.580;2023-03-26T13:56:32;2.95;;;1.70;;
21758;SDS011;11041;50.854;20.580;2023-03-26T13:59:19;3.33;;;1.73;;
21758;SDS011;11041;50.854;20.580;2023-03-26T14:04:55;2.47;;;1.90;;
21758;SDS011;11041;50.854;20.580;2023-03-26T14:10:53;2.72;;;1.75;;
21758;SDS011;11041;50.854;20.580;2023-03-26T14:13:50;1.75;;;1.17;;
21758;SDS011;11041;50.854;20.580;2023-03-26T14:16:47;2.13;;;1.70;;
21758;SDS011;11041;50.854;20.580;2023-03-26T14:19:34;4.85;;;1.83;;
21758;SDS011;11041;50.854;20.580;2023-03-26T14:52:51;2.30;;;1.20;;
21758;SDS011;11041;50.854;20.580;2023-03-26T15:16:07;7.15;;;2.95;;
21758;SDS011;11041;50.854;20.580;2023-03-26T15:43:15;6.40;;;2.83;;
21758;SDS011;11041;50.854;20.580;2023-03-26T15:48:35;4.22;;;2.25;;
21758;SDS011;11041;50.854;20.580;2023-03-26T15:51:36;7.93;;;3.90;;
21758;SDS011;11041;50.854;20.580;2023-03-26T15:54:20;6.38;;;3.25;;
21758;SDS011;11041;50.854;20.580;2023-03-26T16:00:03;3.58;;;2.88;;
21758;SDS011;11041;50.854;20.580;2023-03-26T16:20:48;8.65;;;4.95;;
21758;SDS011;11041;50.854;20.580;2023-03-26T16:34:50;9.05;;;5.75;;
21758;SDS011;11041;50.854;20.580;2023-03-26T16:37:41;10.32;;;5.07;;
21758;SDS011;11041;50.854;20.580;2023-03-26T16:40:31;11.27;;;6.53;;
21758;SDS011;11041;50.854;20.580;2023-03-26T16:43:05;10.55;;;6.13;;
21758;SDS011;11041;50.854;20.580;2023-03-26T16:45:47;8.55;;;5.00;;
21758;SDS011;11041;50.854;20.580;2023-03-26T16:48:38;10.88;;;5.70;;
21758;SDS011;11041;50.854;20.580;2023-03-26T16:54:40;10.43;;;5.65;;
21758;SDS011;11041;50.854;20.580;2023-03-26T17:06:26;13.98;;;8.07;;
21758;SDS011;11041;50.854;20.580;2023-03-26T17:09:29;15.45;;;8.73;;
21758;SDS011;11041;50.854;20.580;2023-03-26T17:28:04;9.18;;;4.78;;
21758;SDS011;11041;50.854;20.580;2023-03-26T17:33:33;7.65;;;4.10;;
21758;SDS011;11041;50.854;20.580;2023-03-26T17:39:17;7.75;;;4.80;;
21758;SDS011;11041;50.854;20.580;2023-03-26T17:47:57;12.13;;;7.85;;
21758;SDS011;11041;50.854;20.580;2023-03-26T17:56:04;30.25;;;9.70;;
21758;SDS011;11041;50.854;20.580;2023-03-26T17:58:44;14.38;;;8.00;;
21758;SDS011;11041;50.854;20.580;2023-03-26T18:04:07;13.98;;;8.52;;
21758;SDS011;11041;50.854;20.580;2023-03-26T18:16:09;96.97;;;52.63;;
21758;SDS011;11041;50.854;20.580;2023-03-26T18:21:29;17.23;;;10.15;;
21758;SDS011;11041;50.854;20.580;2023-03-26T18:24:03;126.43;;;60.75;;
21758;SDS011;11041;50.854;20.580;2023-03-26T18:26:37;38.88;;;20.90;;
21758;SDS011;11041;50.854;20.580;2023-03-26T18:29:29;9.07;;;5.00;;
21758;SDS011;11041;50.854;20.580;2023-03-26T18:32:14;49.35;;;22.85;;
21758;SDS011;11041;50.854;20.580;2023-03-26T18:35:10;87.07;;;36.50;;
21758;SDS011;11041;50.854;20.580;2023-03-26T18:37:51;112.18;;;43.78;;
21758;SDS011;11041;50.854;20.580;2023-03-26T18:40:31;86.35;;;32.85;;
21758;SDS011;11041;50.854;20.580;2023-03-26T18:43:15;85.32;;;33.28;;
21758;SDS011;11041;50.854;20.580;2023-03-26T18:45:45;85.88;;;34.35;;
21758;SDS011;11041;50.854;20.580;2023-03-26T18:48:19;60.75;;;26.63;;
21758;SDS011;11041;50.854;20.580;2023-03-26T18:51:06;72.72;;;31.08;;
21758;SDS011;11041;50.854;20.580;2023-03-26T18:53:43;84.60;;;33.90;;
21758;SDS011;11041;50.854;20.580;2023-03-26T19:05:56;20.25;;;10.40;;
21758;SDS011;11041;50.854;20.580;2023-03-26T19:08:23;12.43;;;7.32;;
21758;SDS011;11041;50.854;20.580;2023-03-26T19:10:51;34.08;;;15.15;;
21758;SDS011;11041;50.854;20.580;2023-03-26T19:13:20;25.42;;;12.25;;
21758;SDS011;11041;50.854;20.580;2023-03-26T19:15:51;54.60;;;24.33;;
21758;SDS011;11041;50.854;20.580;2023-03-26T19:18:22;46.42;;;21.10;;
21758;SDS011;11041;50.854;20.580;2023-03-26T19:20:54;36.53;;;16.20;;
21758;SDS011;11041;50.854;20.580;2023-03-26T19:23:28;35.63;;;16.15;;
21758;SDS011;11041;50.854;20.580;2023-03-26T19:26:14;22.13;;;11.00;;
21758;SDS011;11041;50.854;20.580;2023-03-26T19:29:42;24.35;;;13.43;;
21758;SDS011;11041;50.854;20.580;2023-03-26T19:32:29;21.48;;;12.13;;
21758;SDS011;11041;50.854;20.580;2023-03-26T19:34:59;14.82;;;8.40;;
21758;SDS011;11041;50.854;20.580;2023-03-26T19:37:29;47.40;;;24.02;;
21758;SDS011;11041;50.854;20.580;2023-03-26T19:39:59;38.50;;;20.10;;
21758;SDS011;11041;50.854;20.580;2023-03-26T19:42:57;36.88;;;18.33;;
21758;SDS011;11041;50.854;20.580;2023-03-26T19:45:26;30.40;;;16.55;;
21758;SDS011;11041;50.854;20.580;2023-03-26T19:47:55;12.82;;;7.97;;
21758;SDS011;11041;50.854;20.580;2023-03-26T19:50:26;18.95;;;9.68;;
21758;SDS011;11041;50.854;20.580;2023-03-26T19:55:53;40.53;;;22.75;;
21758;SDS011;11041;50.854;20.580;2023-03-26T19:58:44;49.03;;;26.92;;
21758;SDS011;11041;50.854;20.580;2023-03-26T20:01:15;13.25;;;8.20;;
21758;SDS011;11041;50.854;20.580;2023-03-26T20:03:51;19.88;;;11.85;;
21758;SDS011;11041;50.854;20.580;2023-03-26T20:06:25;15.77;;;9.77;;
21758;SDS011;11041;50.854;20.580;2023-03-26T20:08:53;20.65;;;12.18;;
21758;SDS011;11041;50.854;20.580;2023-03-26T20:11:25;20.40;;;13.73;;
21758;SDS011;11041;50.854;20.580;2023-03-26T20:14:01;19.95;;;13.68;;
21758;SDS011;11041;50.854;20.580;2023-03-26T20:16:42;29.17;;;21.08;;
21758;SDS011;11041;50.854;20.580;2023-03-26T20:19:10;29.20;;;19.13;;
21758;SDS011;11041;50.854;20.580;2023-03-26T20:21:38;28.60;;;18.75;;
21758;SDS011;11041;50.854;20.580;2023-03-26T20:24:12;26.35;;;15.77;;
21758;SDS011;11041;50.854;20.580;2023-03-26T20:26:42;31.30;;;18.83;;
21758;SDS011;11041;50.854;20.580;2023-03-26T20:29:13;31.83;;;20.90;;
21758;SDS011;11041;50.854;20.580;2023-03-26T20:31:41;33.40;;;20.25;;
21758;SDS011;11041;50.854;20.580;2023-03-26T20:34:16;31.42;;;18.15;;
21758;SDS011;11041;50.854;20.580;2023-03-26T20:36:47;26.20;;;16.58;;
21758;SDS011;11041;50.854;20.580;2023-03-26T20:39:22;31.95;;;20.30;;
21758;SDS011;11041;50.854;20.580;2023-03-26T20:41:51;35.75;;;22.45;;
21758;SDS011;11041;50.854;20.580;2023-03-26T20:44:21;30.00;;;19.77;;
21758;SDS011;11041;50.854;20.580;2023-03-26T20:46:48;38.17;;;21.52;;
21758;SDS011;11041;50.854;20.580;2023-03-26T20:49:16;30.15;;;20.83;;
21758;SDS011;11041;50.854;20.580;2023-03-26T20:51:46;25.15;;;16.23;;
21758;SDS011;11041;50.854;20.580;2023-03-26T20:54:15;17.42;;;11.02;;
21758;SDS011;11041;50.854;20.580;2023-03-26T20:56:53;22.38;;;12.02;;
21758;SDS011;11041;50.854;20.580;2023-03-26T20:59:21;25.08;;;15.48;;
21758;SDS011;11041;50.854;20.580;2023-03-26T21:01:51;24.73;;;14.63;;
21758;SDS011;11041;50.854;20.580;2023-03-26T21:04:19;21.70;;;14.27;;
21758;SDS011;11041;50.854;20.580;2023-03-26T21:06:47;21.55;;;13.45;;
21758;SDS011;11041;50.854;20.580;2023-03-26T21:09:15;23.00;;;13.75;;
21758;SDS011;11041;50.854;20.580;2023-03-26T21:11:49;26.63;;;14.73;;
21758;SDS011;11041;50.854;20.580;2023-03-26T21:14:59;21.95;;;12.88;;
21758;SDS011;11041;50.854;20.580;2023-03-26T21:17:26;21.52;;;14.13;;
21758;SDS011;11041;50.854;20.580;2023-03-26T21:19:53;25.48;;;13.23;;
21758;SDS011;11041;50.854;20.580;2023-03-26T21:22:29;23.35;;;14.30;;
21758;SDS011;11041;50.854;20.580;2023-03-26T21:28:48;24.80;;;16.73;;
21758;SDS011;11041;50.854;20.580;2023-03-26T21:31:18;30.98;;;20.00;;
21758;SDS011;11041;50.854;20.580;2023-03-26T21:33:48;32.53;;;19.27;;
21758;SDS011;11041;50.854;20.580;2023-03-26T21:36:17;35.95;;;22.05;;
21758;SDS011;11041;50.854;20.580;2023-03-26T21:38:44;36.83;;;22.17;;
21758;SDS011;11041;50.854;20.580;2023-03-26T21:41:15;35.85;;;23.30;;
21758;SDS011;11041;50.854;20.580;2023-03-26T21:43:49;46.47;;;27.10;;
21758;SDS011;11041;50.854;20.580;2023-03-26T21:46:16;39.28;;;25.48;;
21758;SDS011;11041;50.854;20.580;2023-03-26T21:48:43;36.60;;;22.15;;
21758;SDS011;11041;50.854;20.580;2023-03-26T21:51:10;36.95;;;22.10;;
21758;SDS011;11041;50.854;20.580;2023-03-26T21:53:40;34.47;;;17.95;;
21758;SDS011;11041;50.854;20.580;2023-03-26T22:02:03;30.00;;;18.65;;
21758;SDS011;11041;50.854;20.580;2023-03-26T22:04:42;30.80;;;17.42;;
21758;SDS011;11041;50.854;20.580;2023-03-26T22:07:36;30.45;;;17.83;;
21758;SDS011;11041;50.854;20.580;2023-03-26T22:10:27;28.52;;;16.88;;
21758;SDS011;11041;50.854;20.580;2023-03-26T22:12:55;28.20;;;15.98;;
21758;SDS011;11041;50.854;20.580;2023-03-26T22:15:23;27.75;;;15.07;;
21758;SDS011;11041;50.854;20.580;2023-03-26T22:17:59;22.65;;;11.85;;
21758;SDS011;11041;50.854;20.580;2023-03-26T22:20:27;21.83;;;12.68;;
21758;SDS011;11041;50.854;20.580;2023-03-26T22:22:54;18.60;;;10.93;;
21758;SDS011;11041;50.854;20.580;2023-03-26T22:25:21;24.92;;;16.10;;
21758;SDS011;11041;50.854;20.580;2023-03-26T22:27:49;17.73;;;10.77;;
21758;SDS011;11041;50.854;20.580;2023-03-26T22:30:17;21.88;;;13.50;;
21758;SDS011;11041;50.854;20.580;2023-03-26T22:32:45;22.13;;;13.50;;